sensor_id;sensor_type;location;lat;lon;timestamp;pressure;altitude;pressure_sealevel;temperature;humidity
9839;BME280;4958;48.150;11.506;2023-06-10T00:00:58;95194.31;;;20.72;55.44
9839;BME280;4958;48.150;11.506;2023-06-10T00:03:25;95197.16;;;20.70;54.96
9839;BME280;4958;48.150;11.506;2023-06-10T00:05:51;95198.28;;;20.79;55.05
9839;BME280;4958;48.150;11.506;2023-06-10T00:08:18;95202.22;;;20.82;54.64
9839;BME280;4958;48.150;11.506;2023-06-10T00:10:47;95201.53;;;20.91;54.65
9839;BME280;4958;48.150;11.506;2023-06-10T00:13:13;95196.59;;;20.95;54.17
9839;BME280;4958;48.150;11.506;2023-06-10T00:15:41;95190.47;;;20.84;54.57
9839;BME280;4958;48.150;11.506;2023-06-10T00:18:09;95189.44;;;20.85;54.11
9839;BME280;4958;48.150;11.506;2023-06-10T00:20:38;95193.03;;;20.74;54.38
9839;BME280;4958;48.150;11.506;2023-06-10T00:23:07;95195.53;;;20.64;54.66
9839;BME280;4958;48.150;11.506;2023-06-10T00:25:36;95193.16;;;20.57;54.92
9839;BME280;4958;48.150;11.506;2023-06-10T00:28:06;95191.69;;;20.40;55.59
9839;BME280;4958;48.150;11.506;2023-06-10T00:30:32;95186.78;;;20.26;55.92
9839;BME280;4958;48.150;11.506;2023-06-10T00:32:58;95183.94;;;20.28;56.14
9839;BME280;4958;48.150;11.506;2023-06-10T00:35:29;95193.34;;;20.29;56.14
9839;BME280;4958;48.150;11.506;2023-06-10T00:37:56;95190.50;;;20.30;56.07
9839;BME280;4958;48.150;11.506;2023-06-10T00:40:22;95193.41;;;20.34;56.16
9839;BME280;4958;48.150;11.506;2023-06-10T00:42:48;95194.56;;;20.21;56.56
9839;BME280;4958;48.150;11.506;2023-06-10T00:45:15;95198.53;;;20.24;56.69
9839;BME280;4958;48.150;11.506;2023-06-10T00:47:41;95193.84;;;20.26;56.83
9839;BME280;4958;48.150;11.506;2023-06-10T00:50:08;95196.13;;;20.17;56.74
9839;BME280;4958;48.150;11.506;2023-06-10T00:52:40;95203.72;;;20.19;56.91
9839;BME280;4958;48.150;11.506;2023-06-10T00:55:08;95193.94;;;20.09;57.29
9839;BME280;4958;48.150;11.506;2023-06-10T00:57:36;95197.59;;;20.08;57.86
9839;BME280;4958;48.150;11.506;2023-06-10T01:00:03;95190.53;;;20.09;57.74
9839;BME280;4958;48.150;11.506;2023-06-10T01:02:33;95191.88;;;20.11;57.82
9839;BME280;4958;48.150;11.506;2023-06-10T01:04:59;95198.63;;;20.07;57.88
9839;BME280;4958;48.150;11.506;2023-06-10T01:07:30;95191.50;;;20.02;58.21
9839;BME280;4958;48.150;11.506;2023-06-10T01:10:05;95190.84;;;19.90;58.82
9839;BME280;4958;48.150;11.506;2023-06-10T01:12:39;95194.44;;;19.84;58.92
9839;BME280;4958;48.150;11.506;2023-06-10T01:15:08;95196.25;;;19.84;59.18
9839;BME280;4958;48.150;11.506;2023-06-10T01:17:37;95199.84;;;19.78;59.25
9839;BME280;4958;48.150;11.506;2023-06-10T01:20:17;95198.84;;;19.79;59.23
9839;BME280;4958;48.150;11.506;2023-06-10T01:22:45;95208.41;;;19.73;59.70
9839;BME280;4958;48.150;11.506;2023-06-10T01:25:13;95203.84;;;19.63;60.55
9839;BME280;4958;48.150;11.506;2023-06-10T01:27:40;95205.63;;;19.58;60.49
9839;BME280;4958;48.150;11.506;2023-06-10T01:30:14;95209.44;;;19.50;60.89
9839;BME280;4958;48.150;11.506;2023-06-10T01:32:45;95214.56;;;19.62;60.27
9839;BME280;4958;48.150;11.506;2023-06-10T01:35:13;95213.69;;;19.56;61.22
9839;BME280;4958;48.150;11.506;2023-06-10T01:37:43;95210.78;;;19.75;60.44
9839;BME280;4958;48.150;11.506;2023-06-10T01:40:13;95211.94;;;19.62;61.26
9839;BME280;4958;48.150;11.506;2023-06-10T01:42:40;95206.22;;;19.65;61.51
9839;BME280;4958;48.150;11.506;2023-06-10T01:45:07;95208.66;;;19.72;61.04
9839;BME280;4958;48.150;11.506;2023-06-10T01:47:34;95211.31;;;19.55;62.17
9839;BME280;4958;48.150;11.506;2023-06-10T01:50:00;95201.72;;;19.44;62.05
9839;BME280;4958;48.150;11.506;2023-06-10T01:52:27;95204.28;;;19.39;62.66
9839;BME280;4958;48.150;11.506;2023-06-10T01:54:53;95206.34;;;19.37;62.99
9839;BME280;4958;48.150;11.506;2023-06-10T01:57:21;95215.28;;;19.57;62.12
9839;BME280;4958;48.150;11.506;2023-06-10T01:59:48;95221.06;;;19.59;62.25
9839;BME280;4958;48.150;11.506;2023-06-10T02:02:14;95216.34;;;19.45;62.94
9839;BME280;4958;48.150;11.506;2023-06-10T02:04:40;95212.28;;;19.32;63.71
9839;BME280;4958;48.150;11.506;2023-06-10T02:07:07;95214.75;;;19.22;64.18
9839;BME280;4958;48.150;11.506;2023-06-10T02:09:35;95215.78;;;19.21;64.40
9839;BME280;4958;48.150;11.506;2023-06-10T02:12:02;95215.38;;;19.29;64.03
9839;BME280;4958;48.150;11.506;2023-06-10T02:14:32;95213.47;;;19.24;64.31
9839;BME280;4958;48.150;11.506;2023-06-10T02:16:59;95217.59;;;19.37;63.76
9839;BME280;4958;48.150;11.506;2023-06-10T02:19:25;95218.22;;;19.27;64.29
9839;BME280;4958;48.150;11.506;2023-06-10T02:21:52;95215.44;;;19.34;64.03
9839;BME280;4958;48.150;11.506;2023-06-10T02:24:19;95209.19;;;19.35;64.34
9839;BME280;4958;48.150;11.506;2023-06-10T02:26:46;95207.44;;;19.41;63.95
9839;BME280;4958;48.150;11.506;2023-06-10T02:29:13;95212.19;;;19.27;64.78
9839;BME280;4958;48.150;11.506;2023-06-10T02:31:41;95212.31;;;19.15;65.17
9839;BME280;4958;48.150;11.506;2023-06-10T02:34:07;95206.91;;;19.05;65.75
9839;BME280;4958;48.150;11.506;2023-06-10T02:36:33;95209.16;;;18.96;66.26
9839;BME280;4958;48.150;11.506;2023-06-10T02:39:01;95205.84;;;18.84;66.94
9839;BME280;4958;48.150;11.506;2023-06-10T02:41:28;95215.63;;;18.77;66.92
9839;BME280;4958;48.150;11.506;2023-06-10T02:43:54;95214.19;;;18.70;67.73
9839;BME280;4958;48.150;11.506;2023-06-10T02:46:20;95211.59;;;18.70;67.97
9839;BME280;4958;48.150;11.506;2023-06-10T02:48:48;95206.06;;;18.66;68.31
9839;BME280;4958;48.150;11.506;2023-06-10T02:51:17;95217.59;;;18.70;67.77
9839;BME280;4958;48.150;11.506;2023-06-10T02:53:43;95209.22;;;18.68;67.75
9839;BME280;4958;48.150;11.506;2023-06-10T02:56:10;95207.25;;;18.75;68.30
9839;BME280;4958;48.150;11.506;2023-06-10T02:58:37;95213.56;;;18.96;66.85
9839;BME280;4958;48.150;11.506;2023-06-10T03:01:04;95219.81;;;19.12;65.81
9839;BME280;4958;48.150;11.506;2023-06-10T03:03:36;95211.16;;;19.28;65.66
9839;BME280;4958;48.150;11.506;2023-06-10T03:06:07;95216.91;;;19.47;66.42
9839;BME280;4958;48.150;11.506;2023-06-10T03:08:33;95210.78;;;19.75;66.08
9839;BME280;4958;48.150;11.506;2023-06-10T03:11:00;95219.78;;;19.84;65.17
9839;BME280;4958;48.150;11.506;2023-06-10T03:13:26;95215.66;;;19.88;66.22
9839;BME280;4958;48.150;11.506;2023-06-10T03:15:53;95232.13;;;20.10;66.48
9839;BME280;4958;48.150;11.506;2023-06-10T03:18:19;95225.72;;;20.23;65.43
9839;BME280;4958;48.150;11.506;2023-06-10T03:20:48;95227.84;;;20.26;63.22
9839;BME280;4958;48.150;11.506;2023-06-10T03:23:16;95231.72;;;20.23;63.44
9839;BME280;4958;48.150;11.506;2023-06-10T03:25:43;95239.78;;;20.17;63.18
9839;BME280;4958;48.150;11.506;2023-06-10T03:28:10;95241.13;;;20.19;65.20
9839;BME280;4958;48.150;11.506;2023-06-10T03:30:36;95236.22;;;20.28;64.45
9839;BME280;4958;48.150;11.506;2023-06-10T03:33:03;95241.88;;;20.42;64.57
9839;BME280;4958;48.150;11.506;2023-06-10T03:35:29;95244.63;;;20.52;63.80
9839;BME280;4958;48.150;11.506;2023-06-10T03:37:56;95247.63;;;20.65;64.21
9839;BME280;4958;48.150;11.506;2023-06-10T03:40:24;95251.88;;;20.72;63.15
9839;BME280;4958;48.150;11.506;2023-06-10T03:42:52;95248.34;;;20.61;62.12
9839;BME280;4958;48.150;11.506;2023-06-10T03:45:19;95249.13;;;20.56;62.97
9839;BME280;4958;48.150;11.506;2023-06-10T03:47:46;95257.22;;;20.55;61.95
9839;BME280;4958;48.150;11.506;2023-06-10T03:50:13;95252.66;;;20.45;62.63
9839;BME280;4958;48.150;11.506;2023-06-10T03:52:40;95258.19;;;20.49;61.66
9839;BME280;4958;48.150;11.506;2023-06-10T03:55:07;95258.66;;;20.46;62.30
9839;BME280;4958;48.150;11.506;2023-06-10T03:57:35;95253.31;;;20.35;62.98
9839;BME280;4958;48.150;11.506;2023-06-10T04:00:01;95253.91;;;20.38;62.49
9839;BME280;4958;48.150;11.506;2023-06-10T04:02:35;95260.75;;;20.44;62.92
9839;BME280;4958;48.150;11.506;2023-06-10T04:05:01;95262.69;;;20.53;63.09
9839;BME280;4958;48.150;11.506;2023-06-10T04:07:28;95266.91;;;20.59;62.06
9839;BME280;4958;48.150;11.506;2023-06-10T04:09:56;95263.47;;;20.54;62.39
9839;BME280;4958;48.150;11.506;2023-06-10T04:12:22;95268.75;;;20.59;62.35
9839;BME280;4958;48.150;11.506;2023-06-10T04:14:50;95262.94;;;20.52;62.62
9839;BME280;4958;48.150;11.506;2023-06-10T04:17:17;95261.69;;;20.59;63.28
9839;BME280;4958;48.150;11.506;2023-06-10T04:19:43;95264.41;;;20.69;62.91
9839;BME280;4958;48.150;11.506;2023-06-10T04:22:10;95267.03;;;20.69;61.99
9839;BME280;4958;48.150;11.506;2023-06-10T04:24:37;95276.25;;;20.77;62.00
9839;BME280;4958;48.150;11.506;2023-06-10T04:27:04;95268.91;;;20.74;61.90
9839;BME280;4958;48.150;11.506;2023-06-10T04:29:30;95275.41;;;20.72;62.00
9839;BME280;4958;48.150;11.506;2023-06-10T04:31:58;95280.66;;;20.72;61.95
9839;BME280;4958;48.150;11.506;2023-06-10T04:34:25;95278.34;;;20.75;62.17
9839;BME280;4958;48.150;11.506;2023-06-10T04:36:52;95281.56;;;20.87;62.12
9839;BME280;4958;48.150;11.506;2023-06-10T04:39:18;95283.09;;;20.83;61.74
9839;BME280;4958;48.150;11.506;2023-06-10T04:41:45;95284.38;;;20.76;62.19
9839;BME280;4958;48.150;11.506;2023-06-10T04:44:14;95280.59;;;20.40;63.40
9839;BME280;4958;48.150;11.506;2023-06-10T04:46:42;95282.44;;;20.22;64.24
9839;BME280;4958;48.150;11.506;2023-06-10T04:49:12;95286.16;;;20.05;65.36
9839;BME280;4958;48.150;11.506;2023-06-10T04:51:39;95292.66;;;20.24;65.78
9839;BME280;4958;48.150;11.506;2023-06-10T04:54:05;95295.22;;;20.41;65.54
9839;BME280;4958;48.150;11.506;2023-06-10T04:56:32;95283.91;;;20.57;64.95
9839;BME280;4958;48.150;11.506;2023-06-10T04:58:59;95284.50;;;20.91;63.87
9839;BME280;4958;48.150;11.506;2023-06-10T05:01:25;95289.69;;;21.18;62.63
9839;BME280;4958;48.150;11.506;2023-06-10T05:03:52;95282.06;;;21.43;61.53
9839;BME280;4958;48.150;11.506;2023-06-10T05:06:20;95288.97;;;21.59;60.97
9839;BME280;4958;48.150;11.506;2023-06-10T05:08:47;95286.75;;;21.41;60.96
9839;BME280;4958;48.150;11.506;2023-06-10T05:11:13;95287.03;;;21.45;61.23
9839;BME280;4958;48.150;11.506;2023-06-10T05:13:41;95291.03;;;21.20;61.45
9839;BME280;4958;48.150;11.506;2023-06-10T05:16:09;95285.06;;;20.98;62.64
9839;BME280;4958;48.150;11.506;2023-06-10T05:18:35;95296.00;;;20.90;63.20
9839;BME280;4958;48.150;11.506;2023-06-10T05:21:07;95288.44;;;20.93;63.16
9839;BME280;4958;48.150;11.506;2023-06-10T05:23:50;95290.97;;;20.56;64.90
9839;BME280;4958;48.150;11.506;2023-06-10T05:26:20;95291.47;;;20.53;65.46
9839;BME280;4958;48.150;11.506;2023-06-10T05:28:46;95292.59;;;20.62;64.99
9839;BME280;4958;48.150;11.506;2023-06-10T05:31:18;95292.41;;;20.69;64.89
9839;BME280;4958;48.150;11.506;2023-06-10T05:33:45;95288.50;;;20.72;64.98
9839;BME280;4958;48.150;11.506;2023-06-10T05:36:12;95291.78;;;20.62;65.18
9839;BME280;4958;48.150;11.506;2023-06-10T05:38:39;95293.38;;;20.63;65.24
9839;BME280;4958;48.150;11.506;2023-06-10T05:41:07;95284.31;;;20.71;65.29
9839;BME280;4958;48.150;11.506;2023-06-10T05:43:36;95288.38;;;20.61;65.83
9839;BME280;4958;48.150;11.506;2023-06-10T05:46:03;95285.78;;;20.61;66.35
9839;BME280;4958;48.150;11.506;2023-06-10T05:48:30;95294.16;;;20.63;66.12
9839;BME280;4958;48.150;11.506;2023-06-10T05:50:58;95293.69;;;20.66;66.72
9839;BME280;4958;48.150;11.506;2023-06-10T05:53:25;95304.31;;;20.60;66.78
9839;BME280;4958;48.150;11.506;2023-06-10T05:55:51;95300.56;;;20.73;66.88
9839;BME280;4958;48.150;11.506;2023-06-10T05:58:24;95293.34;;;20.85;66.24
9839;BME280;4958;48.150;11.506;2023-06-10T06:00:50;95297.63;;;20.96;65.48
9839;BME280;4958;48.150;11.506;2023-06-10T06:03:17;95295.94;;;21.12;65.09
9839;BME280;4958;48.150;11.506;2023-06-10T06:05:46;95301.97;;;21.12;64.37
9839;BME280;4958;48.150;11.506;2023-06-10T06:08:14;95301.97;;;21.12;64.75
9839;BME280;4958;48.150;11.506;2023-06-10T06:10:44;95296.03;;;21.22;64.63
9839;BME280;4958;48.150;11.506;2023-06-10T06:13:10;95306.94;;;21.14;65.80
9839;BME280;4958;48.150;11.506;2023-06-10T06:15:38;95305.53;;;21.28;64.86
9839;BME280;4958;48.150;11.506;2023-06-10T06:18:04;95305.16;;;21.19;64.37
9839;BME280;4958;48.150;11.506;2023-06-10T06:20:31;95307.16;;;21.07;65.09
9839;BME280;4958;48.150;11.506;2023-06-10T06:22:57;95306.84;;;21.03;65.61
9839;BME280;4958;48.150;11.506;2023-06-10T06:25:24;95309.78;;;21.07;65.04
9839;BME280;4958;48.150;11.506;2023-06-10T06:27:50;95309.78;;;21.34;64.34
9839;BME280;4958;48.150;11.506;2023-06-10T06:30:17;95300.59;;;21.31;64.29
9839;BME280;4958;48.150;11.506;2023-06-10T06:32:48;95307.25;;;21.49;63.57
9839;BME280;4958;48.150;11.506;2023-06-10T06:35:14;95302.47;;;21.41;64.24
9839;BME280;4958;48.150;11.506;2023-06-10T06:37:40;95300.34;;;21.38;64.93
9839;BME280;4958;48.150;11.506;2023-06-10T06:40:08;95303.44;;;21.30;65.17
9839;BME280;4958;48.150;11.506;2023-06-10T06:42:34;95310.31;;;21.41;64.52
9839;BME280;4958;48.150;11.506;2023-06-10T06:45:01;95303.00;;;21.43;64.58
9839;BME280;4958;48.150;11.506;2023-06-10T06:47:27;95305.69;;;21.48;64.37
9839;BME280;4958;48.150;11.506;2023-06-10T06:49:55;95309.91;;;21.54;64.21
9839;BME280;4958;48.150;11.506;2023-06-10T06:52:22;95310.81;;;21.70;64.64
9839;BME280;4958;48.150;11.506;2023-06-10T06:54:51;95306.94;;;21.83;64.25
9839;BME280;4958;48.150;11.506;2023-06-10T06:57:19;95313.97;;;21.77;63.28
9839;BME280;4958;48.150;11.506;2023-06-10T06:59:45;95311.19;;;21.89;62.93
9839;BME280;4958;48.150;11.506;2023-06-10T07:02:12;95315.88;;;21.87;63.33
9839;BME280;4958;48.150;11.506;2023-06-10T07:04:38;95321.66;;;21.89;63.28
9839;BME280;4958;48.150;11.506;2023-06-10T07:07:08;95310.13;;;21.90;62.38
9839;BME280;4958;48.150;11.506;2023-06-10T07:09:37;95319.56;;;21.86;62.96
9839;BME280;4958;48.150;11.506;2023-06-10T07:12:06;95314.31;;;21.86;62.77
9839;BME280;4958;48.150;11.506;2023-06-10T07:14:33;95324.78;;;21.86;62.83
9839;BME280;4958;48.150;11.506;2023-06-10T07:16:59;95320.19;;;22.03;62.33
9839;BME280;4958;48.150;11.506;2023-06-10T07:19:26;95320.56;;;22.27;62.50
9839;BME280;4958;48.150;11.506;2023-06-10T07:21:52;95321.69;;;22.41;61.05
9839;BME280;4958;48.150;11.506;2023-06-10T07:24:20;95326.63;;;22.27;60.02
9839;BME280;4958;48.150;11.506;2023-06-10T07:26:46;95329.75;;;22.24;60.64
9839;BME280;4958;48.150;11.506;2023-06-10T07:29:13;95329.25;;;22.27;61.77
9839;BME280;4958;48.150;11.506;2023-06-10T07:31:40;95329.22;;;22.22;60.88
9839;BME280;4958;48.150;11.506;2023-06-10T07:34:07;95319.72;;;22.16;60.76
9839;BME280;4958;48.150;11.506;2023-06-10T07:36:33;95319.47;;;22.18;61.08
9839;BME280;4958;48.150;11.506;2023-06-10T07:39:00;95316.13;;;22.32;60.79
9839;BME280;4958;48.150;11.506;2023-06-10T07:41:28;95324.03;;;22.37;60.56
9839;BME280;4958;48.150;11.506;2023-06-10T07:43:54;95315.72;;;22.61;60.48
9839;BME280;4958;48.150;11.506;2023-06-10T07:46:21;95317.84;;;22.74;58.82
9839;BME280;4958;48.150;11.506;2023-06-10T07:48:47;95314.50;;;22.89;59.32
9839;BME280;4958;48.150;11.506;2023-06-10T07:51:14;95313.69;;;22.83;56.50
9839;BME280;4958;48.150;11.506;2023-06-10T07:53:41;95307.88;;;22.76;55.64
9839;BME280;4958;48.150;11.506;2023-06-10T07:56:07;95310.25;;;22.78;55.49
9839;BME280;4958;48.150;11.506;2023-06-10T07:58:35;95307.94;;;22.86;55.65
9839;BME280;4958;48.150;11.506;2023-06-10T08:01:02;95305.03;;;22.83;56.18
9839;BME280;4958;48.150;11.506;2023-06-10T08:03:28;95308.72;;;22.97;56.60
9839;BME280;4958;48.150;11.506;2023-06-10T08:05:54;95315.28;;;23.09;56.00
9839;BME280;4958;48.150;11.506;2023-06-10T08:08:21;95311.88;;;23.14;54.42
9839;BME280;4958;48.150;11.506;2023-06-10T08:10:47;95309.81;;;23.36;54.69
9839;BME280;4958;48.150;11.506;2023-06-10T08:13:14;95317.44;;;23.43;54.50
9839;BME280;4958;48.150;11.506;2023-06-10T08:15:42;95317.69;;;23.67;54.20
9839;BME280;4958;48.150;11.506;2023-06-10T08:18:08;95311.91;;;23.80;53.70
9839;BME280;4958;48.150;11.506;2023-06-10T08:20:35;95315.28;;;23.91;53.19
9839;BME280;4958;48.150;11.506;2023-06-10T08:23:01;95313.44;;;24.01;52.87
9839;BME280;4958;48.150;11.506;2023-06-10T08:25:28;95307.06;;;24.07;52.18
9839;BME280;4958;48.150;11.506;2023-06-10T08:27:54;95302.06;;;24.21;52.07
9839;BME280;4958;48.150;11.506;2023-06-10T08:30:21;95313.16;;;23.98;50.30
9839;BME280;4958;48.150;11.506;2023-06-10T08:32:49;95310.28;;;23.99;50.59
9839;BME280;4958;48.150;11.506;2023-06-10T08:35:17;95309.50;;;23.99;51.07
9839;BME280;4958;48.150;11.506;2023-06-10T08:37:43;95303.13;;;24.20;51.08
9839;BME280;4958;48.150;11.506;2023-06-10T08:40:11;95315.44;;;24.40;50.87
9839;BME280;4958;48.150;11.506;2023-06-10T08:42:39;95312.66;;;24.65;50.55
9839;BME280;4958;48.150;11.506;2023-06-10T08:45:16;95310.16;;;24.89;49.60
9839;BME280;4958;48.150;11.506;2023-06-10T08:47:45;95314.13;;;24.87;49.24
9839;BME280;4958;48.150;11.506;2023-06-10T08:50:13;95313.03;;;24.93;49.81
9839;BME280;4958;48.150;11.506;2023-06-10T08:52:43;95320.53;;;24.70;50.25
9839;BME280;4958;48.150;11.506;2023-06-10T08:55:13;95311.97;;;24.44;49.90
9839;BME280;4958;48.150;11.506;2023-06-10T08:57:41;95305.50;;;24.11;51.23
9839;BME280;4958;48.150;11.506;2023-06-10T09:00:10;95303.91;;;24.21;51.31
9839;BME280;4958;48.150;11.506;2023-06-10T09:02:38;95306.94;;;24.58;50.57
9839;BME280;4958;48.150;11.506;2023-06-10T09:05:05;95313.44;;;24.71;49.86
9839;BME280;4958;48.150;11.506;2023-06-10T09:07:35;95314.63;;;24.94;49.96
9839;BME280;4958;48.150;11.506;2023-06-10T09:10:03;95309.47;;;24.73;49.88
9839;BME280;4958;48.150;11.506;2023-06-10T09:12:32;95303.91;;;24.80;50.16
9839;BME280;4958;48.150;11.506;2023-06-10T09:14:59;95306.66;;;25.09;49.92
9839;BME280;4958;48.150;11.506;2023-06-10T09:17:25;95307.25;;;25.35;48.89
9839;BME280;4958;48.150;11.506;2023-06-10T09:19:52;95317.06;;;25.58;48.53
9839;BME280;4958;48.150;11.506;2023-06-10T09:22:20;95318.03;;;25.72;48.42
9839;BME280;4958;48.150;11.506;2023-06-10T09:24:48;95319.75;;;25.82;48.06
9839;BME280;4958;48.150;11.506;2023-06-10T09:27:15;95310.94;;;25.97;47.84
9839;BME280;4958;48.150;11.506;2023-06-10T09:29:51;95308.50;;;25.76;46.03
9839;BME280;4958;48.150;11.506;2023-06-10T09:32:18;95307.91;;;25.79;46.88
9839;BME280;4958;48.150;11.506;2023-06-10T09:34:46;95307.44;;;25.77;48.10
9839;BME280;4958;48.150;11.506;2023-06-10T09:37:12;95311.94;;;25.77;48.13
9839;BME280;4958;48.150;11.506;2023-06-10T09:39:40;95304.19;;;26.09;48.11
9839;BME280;4958;48.150;11.506;2023-06-10T09:42:16;95318.91;;;26.15;46.80
9839;BME280;4958;48.150;11.506;2023-06-10T09:44:49;95309.13;;;26.40;46.95
9839;BME280;4958;48.150;11.506;2023-06-10T09:47:20;95307.94;;;26.27;46.31
9839;BME280;4958;48.150;11.506;2023-06-10T09:49:46;95314.59;;;25.72;46.97
9839;BME280;4958;48.150;11.506;2023-06-10T09:52:13;95317.63;;;25.55;47.08
9839;BME280;4958;48.150;11.506;2023-06-10T09:54:39;95311.41;;;25.75;46.96
9839;BME280;4958;48.150;11.506;2023-06-10T09:57:07;95313.06;;;25.61;47.20
9839;BME280;4958;48.150;11.506;2023-06-10T09:59:37;95316.28;;;25.24;46.62
9839;BME280;4958;48.150;11.506;2023-06-10T10:02:04;95304.47;;;24.77;47.34
9839;BME280;4958;48.150;11.506;2023-06-10T10:04:30;95309.69;;;24.82;47.18
9839;BME280;4958;48.150;11.506;2023-06-10T10:06:57;95310.97;;;25.29;46.77
9839;BME280;4958;48.150;11.506;2023-06-10T10:09:24;95303.97;;;25.14;45.73
9839;BME280;4958;48.150;11.506;2023-06-10T10:11:51;95305.94;;;25.32;46.45
9839;BME280;4958;48.150;11.506;2023-06-10T10:14:19;95309.38;;;25.67;46.40
9839;BME280;4958;48.150;11.506;2023-06-10T10:16:49;95308.63;;;26.14;45.95
9839;BME280;4958;48.150;11.506;2023-06-10T10:19:20;95306.47;;;26.64;44.86
9839;BME280;4958;48.150;11.506;2023-06-10T10:21:52;95305.28;;;26.94;43.75
9839;BME280;4958;48.150;11.506;2023-06-10T10:24:21;95304.13;;;27.18;43.25
9839;BME280;4958;48.150;11.506;2023-06-10T10:26:48;95311.00;;;27.01;42.40
9839;BME280;4958;48.150;11.506;2023-06-10T10:29:20;95305.38;;;27.40;42.63
9839;BME280;4958;48.150;11.506;2023-06-10T10:31:51;95308.03;;;27.40;41.71
9839;BME280;4958;48.150;11.506;2023-06-10T10:34:21;95299.84;;;27.55;40.02
9839;BME280;4958;48.150;11.506;2023-06-10T10:36:50;95306.34;;;27.63;40.23
9839;BME280;4958;48.150;11.506;2023-06-10T10:39:18;95307.72;;;27.60;41.64
9839;BME280;4958;48.150;11.506;2023-06-10T10:41:45;95299.28;;;27.58;40.57
9839;BME280;4958;48.150;11.506;2023-06-10T10:44:13;95299.72;;;27.46;40.74
9839;BME280;4958;48.150;11.506;2023-06-10T10:46:43;95295.38;;;27.37;41.04
9839;BME280;4958;48.150;11.506;2023-06-10T10:49:12;95297.94;;;27.74;41.53
9839;BME280;4958;48.150;11.506;2023-06-10T10:51:54;95292.06;;;27.77;39.69
9839;BME280;4958;48.150;11.506;2023-06-10T10:54:28;95295.34;;;28.02;39.83
9839;BME280;4958;48.150;11.506;2023-06-10T10:57:11;95286.22;;;28.08;39.81
9839;BME280;4958;48.150;11.506;2023-06-10T10:59:51;95299.88;;;27.36;40.26
9839;BME280;4958;48.150;11.506;2023-06-10T11:02:33;95288.19;;;26.86;42.25
9839;BME280;4958;48.150;11.506;2023-06-10T11:05:02;95294.59;;;26.61;42.91
9839;BME280;4958;48.150;11.506;2023-06-10T11:07:30;95296.72;;;26.40;43.07
9839;BME280;4958;48.150;11.506;2023-06-10T11:09:58;95296.16;;;26.20;43.63
9839;BME280;4958;48.150;11.506;2023-06-10T11:12:26;95290.16;;;26.14;44.98
9839;BME280;4958;48.150;11.506;2023-06-10T11:14:55;95290.78;;;26.06;44.84
9839;BME280;4958;48.150;11.506;2023-06-10T11:17:22;95288.63;;;26.08;45.56
9839;BME280;4958;48.150;11.506;2023-06-10T11:19:48;95293.03;;;25.94;45.51
9839;BME280;4958;48.150;11.506;2023-06-10T11:22:17;95295.47;;;25.85;45.38
9839;BME280;4958;48.150;11.506;2023-06-10T11:24:49;95300.50;;;25.81;45.31
9839;BME280;4958;48.150;11.506;2023-06-10T11:27:17;95287.78;;;26.36;44.92
9839;BME280;4958;48.150;11.506;2023-06-10T11:30:19;95288.69;;;26.88;43.33
9839;BME280;4958;48.150;11.506;2023-06-10T11:32:50;95288.50;;;27.36;42.43
9839;BME280;4958;48.150;11.506;2023-06-10T11:35:18;95292.97;;;27.22;42.07
9839;BME280;4958;48.150;11.506;2023-06-10T11:37:47;95292.41;;;26.87;42.48
9839;BME280;4958;48.150;11.506;2023-06-10T11:40:14;95286.94;;;26.41;42.96
9839;BME280;4958;48.150;11.506;2023-06-10T11:42:42;95292.84;;;26.09;43.21
9839;BME280;4958;48.150;11.506;2023-06-10T11:45:09;95289.53;;;25.98;44.42
9839;BME280;4958;48.150;11.506;2023-06-10T11:47:35;95287.50;;;25.90;44.61
9839;BME280;4958;48.150;11.506;2023-06-10T11:50:02;95286.53;;;25.81;44.83
9839;BME280;4958;48.150;11.506;2023-06-10T11:52:30;95282.75;;;25.63;44.93
9839;BME280;4958;48.150;11.506;2023-06-10T11:54:58;95277.59;;;25.48;45.82
9839;BME280;4958;48.150;11.506;2023-06-10T11:57:25;95280.84;;;25.40;45.34
9839;BME280;4958;48.150;11.506;2023-06-10T11:59:51;95285.38;;;25.34;45.12
9839;BME280;4958;48.150;11.506;2023-06-10T12:02:18;95285.66;;;25.33;45.38
9839;BME280;4958;48.150;11.506;2023-06-10T12:04:45;95278.97;;;25.11;44.27
9839;BME280;4958;48.150;11.506;2023-06-10T12:07:17;95269.09;;;25.27;45.26
9839;BME280;4958;48.150;11.506;2023-06-10T12:09:44;95269.28;;;25.94;44.07
9839;BME280;4958;48.150;11.506;2023-06-10T12:12:12;95257.28;;;26.49;42.71
9839;BME280;4958;48.150;11.506;2023-06-10T12:14:55;95260.72;;;27.06;42.31
9839;BME280;4958;48.150;11.506;2023-06-10T12:17:35;95261.41;;;27.44;42.06
9839;BME280;4958;48.150;11.506;2023-06-10T12:20:04;95257.47;;;27.74;41.73
9839;BME280;4958;48.150;11.506;2023-06-10T12:22:36;95260.22;;;27.96;40.83
9839;BME280;4958;48.150;11.506;2023-06-10T12:25:03;95252.78;;;28.12;40.46
9839;BME280;4958;48.150;11.506;2023-06-10T12:27:34;95257.69;;;28.18;40.61
9839;BME280;4958;48.150;11.506;2023-06-10T12:30:03;95258.28;;;28.43;39.79
9839;BME280;4958;48.150;11.506;2023-06-10T12:32:38;95247.38;;;28.31;38.93
9839;BME280;4958;48.150;11.506;2023-06-10T12:35:07;95251.31;;;28.47;39.49
9839;BME280;4958;48.150;11.506;2023-06-10T12:37:34;95256.47;;;28.66;39.55
9839;BME280;4958;48.150;11.506;2023-06-10T12:40:01;95263.69;;;28.74;38.76
9839;BME280;4958;48.150;11.506;2023-06-10T12:42:29;95247.13;;;28.82;38.34
9839;BME280;4958;48.150;11.506;2023-06-10T12:44:57;95241.22;;;28.85;37.55
9839;BME280;4958;48.150;11.506;2023-06-10T12:47:29;95243.25;;;28.88;37.91
9839;BME280;4958;48.150;11.506;2023-06-10T12:49:58;95239.34;;;29.08;38.23
9839;BME280;4958;48.150;11.506;2023-06-10T12:52:24;95232.47;;;29.29;36.82
9839;BME280;4958;48.150;11.506;2023-06-10T12:54:51;95231.75;;;29.15;36.27
9839;BME280;4958;48.150;11.506;2023-06-10T12:57:18;95232.34;;;29.12;37.37
9839;BME280;4958;48.150;11.506;2023-06-10T12:59:44;95231.25;;;28.54;38.35
9839;BME280;4958;48.150;11.506;2023-06-10T13:02:16;95226.59;;;28.10;39.68
9839;BME280;4958;48.150;11.506;2023-06-10T13:04:43;95225.13;;;27.77;40.20
9839;BME280;4958;48.150;11.506;2023-06-10T13:07:10;95233.94;;;27.59;40.18
9839;BME280;4958;48.150;11.506;2023-06-10T13:09:36;95239.31;;;27.21;40.31
9839;BME280;4958;48.150;11.506;2023-06-10T13:12:03;95238.28;;;26.66;42.15
9839;BME280;4958;48.150;11.506;2023-06-10T13:14:30;95241.00;;;26.79;42.89